createdAt,value
2019-03-19T00:01:28.090Z,26.53
2019-03-19T00:03:56.543Z,28.57
2019-03-19T00:06:24.956Z,22.53
2019-03-19T00:08:53.416Z,46.40
2019-03-19T00:11:21.856Z,31.87
2019-03-19T00:14:09.643Z,23.70
2019-03-19T00:16:38.070Z,25.90
2019-03-19T00:19:06.501Z,26.57
2019-03-19T00:21:34.943Z,23.07
2019-03-19T00:24:22.735Z,22.03
2019-03-19T00:26:51.152Z,21.93
2019-03-19T00:29:19.595Z,17.50
2019-03-19T00:31:48.016Z,21.50
2019-03-19T00:34:16.449Z,22.50
2019-03-19T00:36:44.903Z,32.20
2019-03-19T00:39:14.040Z,23.73
2019-03-19T00:41:42.536Z,30.07
2019-03-19T00:44:10.987Z,18.10
2019-03-19T00:46:39.418Z,31.70
2019-03-19T00:49:07.844Z,31.17
2019-03-19T00:51:36.274Z,30.63
2019-03-19T00:54:05.288Z,22.80
2019-03-19T00:56:33.763Z,29.87
2019-03-19T00:59:02.204Z,24.80
2019-03-19T01:01:30.648Z,34.87
2019-03-19T01:03:59.079Z,22.27
2019-03-19T01:06:27.554Z,15.50
2019-03-19T01:08:56.044Z,23.77
2019-03-19T01:11:24.488Z,29.63
2019-03-19T01:13:52.931Z,16.57
2019-03-19T01:16:21.758Z,29.97
2019-03-19T01:18:50.223Z,35.30
2019-03-19T01:21:18.669Z,34.37
2019-03-19T01:23:47.106Z,21.63
2019-03-19T01:26:34.913Z,19.50
2019-03-19T01:29:03.381Z,20.73
2019-03-19T01:31:51.167Z,21.53
2019-03-19T01:34:19.675Z,27.00
2019-03-19T01:36:48.139Z,24.93
2019-03-19T01:39:16.554Z,24.13
2019-03-19T01:41:44.995Z,23.47
2019-03-19T01:44:13.428Z,40.30
2019-03-19T01:46:41.878Z,23.00
2019-03-19T01:49:10.328Z,23.73
2019-03-19T01:51:38.739Z,28.70
2019-03-19T01:54:07.193Z,25.13
2019-03-19T01:56:35.612Z,29.97
2019-03-19T01:59:04.149Z,23.67
2019-03-19T02:01:32.595Z,29.50
2019-03-19T02:04:20.396Z,35.50
2019-03-19T02:06:48.809Z,31.10
2019-03-19T02:09:17.259Z,24.23
2019-03-19T02:11:45.681Z,22.80
2019-03-19T02:14:33.484Z,23.40
2019-03-19T02:17:01.922Z,27.43
2019-03-19T02:19:30.339Z,34.27
2019-03-19T02:21:58.799Z,23.00
2019-03-19T02:24:27.283Z,45.63
2019-03-19T02:26:55.703Z,23.43
2019-03-19T02:29:24.146Z,23.30
2019-03-19T02:31:52.577Z,24.47
2019-03-19T02:34:21.100Z,20.13
2019-03-19T02:36:49.538Z,34.83
2019-03-19T02:39:17.991Z,28.73
2019-03-19T02:41:46.435Z,29.93
2019-03-19T02:44:14.899Z,18.13
2019-03-19T02:46:43.412Z,24.67
2019-03-19T02:49:11.845Z,33.87
2019-03-19T02:51:59.635Z,35.03
2019-03-19T02:54:28.117Z,26.03
2019-03-19T02:56:56.564Z,31.83
2019-03-19T02:59:25.030Z,25.33
2019-03-19T03:01:53.526Z,23.47
2019-03-19T03:04:41.304Z,24.90
2019-03-19T03:07:09.760Z,40.53
2019-03-19T03:09:38.202Z,32.23
2019-03-19T03:12:06.707Z,29.03
2019-03-19T03:14:35.245Z,33.67
2019-03-19T03:17:03.686Z,30.33
2019-03-19T03:19:32.166Z,31.10
2019-03-19T03:22:00.577Z,27.40
2019-03-19T03:24:29.410Z,29.43
2019-03-19T03:26:58.166Z,33.07
2019-03-19T03:29:26.976Z,23.00
2019-03-19T03:31:55.858Z,31.50
2019-03-19T03:34:24.696Z,27.23
2019-03-19T03:36:53.652Z,30.33
2019-03-19T03:39:22.619Z,23.20
2019-03-19T03:41:51.368Z,29.67
2019-03-19T03:44:20.376Z,37.20
2019-03-19T03:46:48.828Z,27.40
2019-03-19T03:49:17.240Z,24.57
2019-03-19T03:51:45.702Z,24.40
2019-03-19T03:54:14.210Z,42.90
2019-03-19T03:56:42.735Z,28.50
2019-03-19T03:59:11.220Z,24.10
2019-03-19T04:01:39.736Z,26.53
2019-03-19T04:04:08.153Z,25.00
2019-03-19T04:06:36.606Z,26.43
2019-03-19T04:09:09.277Z,30.37
2019-03-19T04:11:37.146Z,38.90
2019-03-19T04:14:05.640Z,23.63
2019-03-19T04:16:34.080Z,23.77
2019-03-19T04:19:02.536Z,53.13
2019-03-19T04:21:30.960Z,39.10
2019-03-19T04:23:59.553Z,38.53
2019-03-19T04:26:28.077Z,29.93
2019-03-19T04:28:56.560Z,34.67
2019-03-19T04:31:25.028Z,24.13
2019-03-19T04:33:53.520Z,36.20
2019-03-19T04:36:21.993Z,25.63
2019-03-19T04:38:50.484Z,34.00
2019-03-19T04:41:18.928Z,32.20
2019-03-19T04:43:47.387Z,34.63
2019-03-19T04:46:15.808Z,30.87
2019-03-19T04:48:44.233Z,29.23
2019-03-19T04:51:12.689Z,30.70
2019-03-19T04:53:41.149Z,31.47
2019-03-19T04:56:09.647Z,34.60
2019-03-19T04:58:38.105Z,36.07
2019-03-19T05:01:06.552Z,28.33
2019-03-19T05:03:34.987Z,50.83
2019-03-19T05:06:03.487Z,41.43
2019-03-19T05:08:32.004Z,22.60
2019-03-19T05:11:00.450Z,30.70
2019-03-19T05:13:28.858Z,25.27
2019-03-19T05:15:57.316Z,32.07
2019-03-19T05:18:25.730Z,32.03
2019-03-19T05:20:54.189Z,42.53
2019-03-19T05:23:22.624Z,40.20
2019-03-19T05:25:51.070Z,44.30
2019-03-19T05:28:38.855Z,42.70
2019-03-19T05:31:07.272Z,34.50
2019-03-19T05:33:35.745Z,55.93
2019-03-19T05:36:04.173Z,28.57
2019-03-19T05:38:32.642Z,49.33
2019-03-19T05:41:01.088Z,28.17
2019-03-19T05:43:29.564Z,33.97
2019-03-19T05:45:58.035Z,33.50
2019-03-19T05:48:26.492Z,31.87
2019-03-19T05:50:54.999Z,25.90
2019-03-19T05:53:31.367Z,34.10
2019-03-19T05:55:59.819Z,36.10
2019-03-19T05:58:28.246Z,29.47
2019-03-19T06:00:56.863Z,33.90
2019-03-19T06:03:44.656Z,34.33
2019-03-19T06:06:13.100Z,39.40
2019-03-19T06:11:36.612Z,38.50
2019-03-19T06:14:05.092Z,40.47
2019-03-19T06:16:33.516Z,36.57
2019-03-19T06:19:01.981Z,28.17
2019-03-19T06:21:30.410Z,30.50
2019-03-19T06:23:58.851Z,30.90
2019-03-19T06:26:27.262Z,36.60
2019-03-19T06:28:55.733Z,33.40
2019-03-19T06:31:43.495Z,32.30
2019-03-19T06:34:11.941Z,31.80
2019-03-19T06:36:40.368Z,30.93
2019-03-19T06:39:28.157Z,23.03
2019-03-19T06:41:56.606Z,28.53
2019-03-19T06:44:25.032Z,24.67
2019-03-19T06:46:53.479Z,22.13
2019-03-19T06:49:21.913Z,33.27
2019-03-19T06:51:50.407Z,31.53
2019-03-19T06:54:18.859Z,27.73
2019-03-19T06:56:47.306Z,19.83
2019-03-19T06:59:15.731Z,22.40
2019-03-19T07:01:44.189Z,30.20
2019-03-19T07:04:12.649Z,22.40
2019-03-19T07:06:41.154Z,27.40
2019-03-19T07:09:09.599Z,23.53
2019-03-19T07:11:38.888Z,31.47
2019-03-19T07:14:07.471Z,22.40
2019-03-19T07:16:35.893Z,36.27
2019-03-19T07:19:04.395Z,18.83
2019-03-19T07:21:32.827Z,27.93
2019-03-19T07:24:01.266Z,18.93
2019-03-19T07:26:29.699Z,26.80
2019-03-19T07:28:58.141Z,19.00
2019-03-19T07:31:30.627Z,25.90
2019-03-19T07:33:56.966Z,21.90
2019-03-19T07:36:25.375Z,22.23
2019-03-19T07:38:53.825Z,19.67
2019-03-19T07:41:22.244Z,23.03
2019-03-19T07:43:50.692Z,29.30
2019-03-19T07:46:19.144Z,27.53
2019-03-19T07:48:47.643Z,29.50
2019-03-19T07:51:28.693Z,21.37
2019-03-19T07:54:09.429Z,32.17
2019-03-19T07:56:37.895Z,23.83
2019-03-19T07:59:06.380Z,23.97
2019-03-19T08:01:54.168Z,23.77
2019-03-19T08:04:22.698Z,16.70
2019-03-19T08:06:51.110Z,30.40
2019-03-19T08:09:19.597Z,20.30
2019-03-19T08:11:48.163Z,26.80
2019-03-19T08:14:16.629Z,32.23
2019-03-19T08:16:45.042Z,25.07
2019-03-19T08:19:32.828Z,20.73
2019-03-19T08:22:01.275Z,39.23
2019-03-19T08:24:29.991Z,31.17
2019-03-19T08:26:58.403Z,27.60
2019-03-19T08:29:26.855Z,33.03
2019-03-19T08:32:14.639Z,21.90
2019-03-19T08:34:43.075Z,22.90
2019-03-19T08:37:11.505Z,20.00
2019-03-19T08:39:39.943Z,15.97
2019-03-19T08:42:08.436Z,17.57
2019-03-19T08:44:36.988Z,20.50
2019-03-19T08:47:11.175Z,20.80
2019-03-19T08:49:39.618Z,22.57
2019-03-19T08:52:08.036Z,21.00
2019-03-19T08:54:36.455Z,18.90
2019-03-19T08:57:04.919Z,19.03
2019-03-19T08:59:33.379Z,29.53
2019-03-19T09:02:01.822Z,19.43
2019-03-19T09:04:30.241Z,20.50
2019-03-19T09:06:58.684Z,19.30
2019-03-19T09:09:27.141Z,16.90
2019-03-19T09:11:55.589Z,25.03
2019-03-19T09:14:24.052Z,25.13
2019-03-19T09:16:52.471Z,23.50
2019-03-19T09:19:20.906Z,21.63
2019-03-19T09:21:49.364Z,19.10
2019-03-19T09:24:20.737Z,23.37
2019-03-19T09:26:49.178Z,22.80
2019-03-19T09:29:17.627Z,15.60
2019-03-19T09:31:46.036Z,16.53
2019-03-19T09:34:14.497Z,21.47
2019-03-19T09:36:42.919Z,27.00
2019-03-19T09:39:17.272Z,28.13
2019-03-19T09:41:45.694Z,16.83
2019-03-19T09:44:14.220Z,27.87
2019-03-19T09:46:42.649Z,18.90
2019-03-19T09:49:11.094Z,43.83
2019-03-19T09:51:39.551Z,29.30
2019-03-19T09:57:03.407Z,27.47
2019-03-19T09:59:31.826Z,21.83
2019-03-19T10:02:00.276Z,34.50
2019-03-19T10:04:34.025Z,21.30
2019-03-19T10:07:06.247Z,20.37
2019-03-19T10:09:32.681Z,16.37
2019-03-19T10:12:01.122Z,20.60
2019-03-19T10:14:29.581Z,30.13
2019-03-19T10:16:58.006Z,30.37
2019-03-19T10:19:26.419Z,36.77
2019-03-19T10:21:54.868Z,26.87
2019-03-19T10:24:23.312Z,24.40
2019-03-19T10:26:51.728Z,46.17
2019-03-19T10:29:39.519Z,18.20
2019-03-19T10:32:07.971Z,25.07
2019-03-19T10:34:36.504Z,20.40
2019-03-19T10:37:04.992Z,27.70
2019-03-19T10:39:33.452Z,22.40
2019-03-19T10:42:01.939Z,23.20
2019-03-19T10:44:30.468Z,21.20
2019-03-19T10:46:58.884Z,36.73
2019-03-19T10:49:27.339Z,31.33
2019-03-19T10:51:55.747Z,21.47
2019-03-19T10:54:43.569Z,23.10
2019-03-19T10:57:11.995Z,23.77
2019-03-19T10:59:48.773Z,23.93
2019-03-19T11:02:10.583Z,24.30
2019-03-19T11:04:39.071Z,30.03
2019-03-19T11:07:26.855Z,24.67
2019-03-19T11:09:55.272Z,21.07
2019-03-19T11:12:23.728Z,37.43
2019-03-19T11:15:13.036Z,27.77
2019-03-19T11:17:41.495Z,32.50
2019-03-19T11:20:15.520Z,31.10
2019-03-19T11:22:44.079Z,30.80
2019-03-19T11:25:15.536Z,27.17
2019-03-19T11:27:44.390Z,26.67
2019-03-19T11:30:18.543Z,19.83
2019-03-19T11:32:46.988Z,30.53
2019-03-19T11:35:16.493Z,32.90
2019-03-19T11:37:44.983Z,16.17
2019-03-19T11:40:18.213Z,23.30
2019-03-19T11:42:47.163Z,23.27
2019-03-19T11:45:19.841Z,31.43
2019-03-19T11:47:48.327Z,21.80
2019-03-19T11:50:32.898Z,20.20
2019-03-19T11:53:00.552Z,22.87
2019-03-19T11:55:28.999Z,26.30
2019-03-19T11:57:57.844Z,32.57
2019-03-19T12:00:32.347Z,29.47
2019-03-19T12:03:12.210Z,20.20
2019-03-19T12:05:31.071Z,22.47
2019-03-19T12:08:01.151Z,23.43
2019-03-19T12:10:29.726Z,19.90
2019-03-19T12:12:58.169Z,25.10
2019-03-19T12:15:26.632Z,24.63
2019-03-19T12:17:55.059Z,21.93
2019-03-19T12:20:23.498Z,26.57
2019-03-19T12:22:51.943Z,26.50
2019-03-19T12:25:20.440Z,21.47
2019-03-19T12:27:48.883Z,23.70
2019-03-19T12:30:25.780Z,18.50
2019-03-19T12:33:13.619Z,32.13
2019-03-19T12:35:54.073Z,26.30
2019-03-19T12:38:34.698Z,34.00
2019-03-19T12:41:15.732Z,33.53
2019-03-19T12:43:56.614Z,27.43
2019-03-19T12:46:25.065Z,25.27
2019-03-19T12:48:54.431Z,23.47
2019-03-19T12:51:42.448Z,32.43
2019-03-19T12:54:10.859Z,36.23
2019-03-19T12:56:39.315Z,29.30
2019-03-19T12:59:07.730Z,23.57
2019-03-19T13:01:36.214Z,20.23
2019-03-19T13:04:04.926Z,21.23
2019-03-19T13:06:52.725Z,28.83
2019-03-19T13:09:21.171Z,28.60
2019-03-19T13:12:08.955Z,24.93
2019-03-19T13:14:37.463Z,31.23
2019-03-19T13:17:05.921Z,29.67
2019-03-19T13:19:53.787Z,28.73
2019-03-19T13:22:22.214Z,38.37
2019-03-19T13:24:50.663Z,32.60
2019-03-19T13:27:19.103Z,25.93
2019-03-19T13:29:47.599Z,24.97
2019-03-19T13:32:16.045Z,26.27
2019-03-19T13:34:44.463Z,28.47
2019-03-19T13:37:12.979Z,26.33
2019-03-19T13:39:41.434Z,29.77
2019-03-19T13:42:09.891Z,29.70
2019-03-19T13:44:38.329Z,32.20
2019-03-19T13:47:06.783Z,30.80
2019-03-19T13:49:35.216Z,36.07
2019-03-19T13:52:03.730Z,37.67
2019-03-19T13:54:44.184Z,35.13
2019-03-19T13:57:12.639Z,34.30
2019-03-19T13:59:41.080Z,34.13
2019-03-19T14:02:09.570Z,26.67
2019-03-19T14:04:43.655Z,32.43
2019-03-19T14:07:12.075Z,43.93
2019-03-19T14:09:40.520Z,29.30
2019-03-19T14:12:08.976Z,31.00
2019-03-19T14:14:37.400Z,26.63
2019-03-19T14:17:06.739Z,24.83
2019-03-19T14:19:54.791Z,26.60
2019-03-19T14:22:23.207Z,27.00
2019-03-19T14:24:51.777Z,20.73
2019-03-19T14:27:20.215Z,24.20
2019-03-19T14:29:48.630Z,24.43
2019-03-19T14:32:17.086Z,23.00
2019-03-19T14:34:45.553Z,25.00
2019-03-19T14:37:14.071Z,22.10
2019-03-19T14:39:55.013Z,20.00
2019-03-19T14:42:23.474Z,21.07
2019-03-19T14:44:52.040Z,25.00
2019-03-19T14:47:20.478Z,22.63
2019-03-19T14:49:49.914Z,25.90
2019-03-19T14:52:18.615Z,22.90
2019-03-19T14:54:47.092Z,21.63
2019-03-19T14:57:15.560Z,23.07
2019-03-19T14:59:44.007Z,17.37
2019-03-19T15:02:12.446Z,24.03
2019-03-19T15:04:52.611Z,28.63
2019-03-19T15:07:21.032Z,19.80
2019-03-19T15:09:49.504Z,24.10
2019-03-19T15:12:17.923Z,25.97
2019-03-19T15:14:46.359Z,19.70
2019-03-19T15:17:14.799Z,16.73
2019-03-19T15:19:43.217Z,24.27
2019-03-19T15:22:11.638Z,24.70
2019-03-19T15:24:40.150Z,27.83
2019-03-19T15:27:08.711Z,20.53
2019-03-19T15:29:37.169Z,18.50
2019-03-19T15:32:05.651Z,20.80
2019-03-19T15:34:34.112Z,32.17
2019-03-19T15:37:02.536Z,18.80
2019-03-19T15:39:30.977Z,21.70
2019-03-19T15:41:59.403Z,25.83
2019-03-19T15:44:27.987Z,23.97
2019-03-19T15:46:56.508Z,18.30
2019-03-19T15:49:24.930Z,35.30
2019-03-19T15:51:53.392Z,25.03
2019-03-19T15:54:23.757Z,21.13
2019-03-19T15:56:52.181Z,22.17
2019-03-19T15:59:20.629Z,19.57
2019-03-19T16:01:49.064Z,17.10
2019-03-19T16:04:17.526Z,16.93
2019-03-19T16:06:45.971Z,15.03
2019-03-19T16:09:14.465Z,13.20
2019-03-19T16:11:42.894Z,20.80
2019-03-19T16:14:11.321Z,19.63
2019-03-19T16:16:39.744Z,19.30
2019-03-19T16:19:08.191Z,19.03
2019-03-19T16:21:36.617Z,22.70
2019-03-19T16:24:05.181Z,23.67
2019-03-19T16:26:33.667Z,22.20
2019-03-19T16:29:02.105Z,29.23
2019-03-19T16:31:30.539Z,33.47
2019-03-19T16:33:58.994Z,23.17
2019-03-19T16:36:27.415Z,21.73
2019-03-19T16:38:55.894Z,26.67
2019-03-19T16:41:36.520Z,25.97
2019-03-19T16:44:05.037Z,20.87
2019-03-19T16:46:33.610Z,29.43
2019-03-19T16:49:02.066Z,30.43
2019-03-19T16:51:30.551Z,29.93
2019-03-19T16:53:59.000Z,24.60
2019-03-19T16:56:27.442Z,27.13
2019-03-19T16:58:55.889Z,24.40
2019-03-19T17:01:24.310Z,27.03
2019-03-19T17:03:52.743Z,27.47
2019-03-19T17:06:21.364Z,28.07
2019-03-19T17:08:49.872Z,32.67
2019-03-19T17:11:18.304Z,35.57
2019-03-19T17:13:46.770Z,33.60
2019-03-19T17:16:15.224Z,30.47
2019-03-19T17:18:43.676Z,27.20
2019-03-19T17:21:12.097Z,29.37
2019-03-19T17:23:40.547Z,32.80
2019-03-19T17:26:08.976Z,35.63
2019-03-19T17:28:37.489Z,34.90
2019-03-19T17:31:05.944Z,39.87
2019-03-19T17:33:34.385Z,36.63
2019-03-19T17:36:03.184Z,35.60
2019-03-19T17:38:31.873Z,30.50
2019-03-19T17:41:00.723Z,34.83
2019-03-19T17:43:29.430Z,39.70
2019-03-19T17:45:58.243Z,47.80
2019-03-19T17:48:26.795Z,37.50
2019-03-19T17:50:56.662Z,36.03
2019-03-19T17:53:25.323Z,42.73
2019-03-19T17:55:54.009Z,107.93
2019-03-19T17:58:35.239Z,126.43
2019-03-19T18:01:04.165Z,48.93
2019-03-19T18:03:32.792Z,81.23
2019-03-19T18:06:01.315Z,67.87
2019-03-19T18:08:29.919Z,43.10
2019-03-19T18:11:17.978Z,42.57
2019-03-19T18:13:46.607Z,41.97
2019-03-19T18:16:15.194Z,36.57
2019-03-19T18:18:45.422Z,41.63
2019-03-19T18:21:14.270Z,43.83
2019-03-19T18:23:42.972Z,39.27
2019-03-19T18:26:11.586Z,49.27
2019-03-19T18:28:40.269Z,54.33
2019-03-19T18:31:08.760Z,77.90
2019-03-19T18:33:37.211Z,58.17
2019-03-19T18:36:05.660Z,53.20
2019-03-19T18:38:34.073Z,50.80
2019-03-19T18:41:02.679Z,53.60
2019-03-19T18:43:31.203Z,57.13
2019-03-19T18:45:59.817Z,60.27
2019-03-19T18:48:28.461Z,74.27
2019-03-19T18:51:01.798Z,60.77
2019-03-19T18:53:30.897Z,52.80
2019-03-19T18:55:59.773Z,50.00
2019-03-19T18:58:28.823Z,53.90
2019-03-19T19:00:57.510Z,55.70
2019-03-19T19:03:26.044Z,47.43
2019-03-19T19:05:54.704Z,43.83
2019-03-19T19:08:23.489Z,49.03
2019-03-19T19:10:52.145Z,43.20
2019-03-19T19:13:20.625Z,50.20
2019-03-19T19:15:50.326Z,39.53
2019-03-19T19:18:19.136Z,46.07
2019-03-19T19:20:47.662Z,43.23
2019-03-19T19:23:16.115Z,42.00
2019-03-19T19:25:44.579Z,45.43
2019-03-19T19:28:13.090Z,42.83
2019-03-19T19:30:41.539Z,40.17
2019-03-19T19:33:10.000Z,43.43
2019-03-19T19:35:38.451Z,39.93
2019-03-19T19:38:06.875Z,54.27
2019-03-19T19:40:35.328Z,43.17
2019-03-19T19:43:04.542Z,50.63
2019-03-19T19:45:52.371Z,47.20
2019-03-19T19:48:20.811Z,42.10
2019-03-19T19:50:49.267Z,46.40
2019-03-19T19:53:17.804Z,71.30
2019-03-19T19:55:46.412Z,70.70
2019-03-19T19:58:14.874Z,76.50
2019-03-19T20:00:43.799Z,81.47
2019-03-19T20:03:12.823Z,58.40
2019-03-19T20:05:41.538Z,73.57
2019-03-19T20:08:10.301Z,69.93
2019-03-19T20:10:38.779Z,57.63
2019-03-19T20:13:26.922Z,61.93
2019-03-19T20:15:55.691Z,54.13
2019-03-19T20:18:30.258Z,50.57
2019-03-19T20:20:59.142Z,50.03
2019-03-19T20:23:28.042Z,39.80
2019-03-19T20:25:56.722Z,43.93
2019-03-19T20:28:25.329Z,40.73
2019-03-19T20:30:54.076Z,44.30
2019-03-19T20:33:25.014Z,45.07
2019-03-19T20:35:52.962Z,44.20
2019-03-19T20:38:21.612Z,48.30
2019-03-19T20:40:50.444Z,48.57
2019-03-19T20:43:19.083Z,41.37
2019-03-19T20:45:47.851Z,44.83
2019-03-19T20:48:16.629Z,62.30
2019-03-19T20:50:45.112Z,49.90
2019-03-19T20:53:13.614Z,55.90
2019-03-19T20:55:42.170Z,47.73
2019-03-19T21:00:59.388Z,58.40
2019-03-19T21:03:36.134Z,46.10
2019-03-19T21:06:03.067Z,47.03
2019-03-19T21:08:50.831Z,51.20
2019-03-19T21:11:19.332Z,48.23
2019-03-19T21:14:07.161Z,43.87
2019-03-19T21:16:35.642Z,52.00
2019-03-19T21:19:04.089Z,47.10
2019-03-19T21:21:32.540Z,49.60
2019-03-19T21:24:01.438Z,60.83
2019-03-19T21:26:29.908Z,60.40
2019-03-19T21:28:58.506Z,52.40
2019-03-19T21:31:26.999Z,43.20
2019-03-19T21:33:55.482Z,46.40
2019-03-19T21:36:23.928Z,48.20
2019-03-19T21:38:52.352Z,39.30
2019-03-19T21:41:40.206Z,45.20
2019-03-19T21:44:08.708Z,42.97
2019-03-19T21:46:37.280Z,43.20
2019-03-19T21:49:25.039Z,43.10
2019-03-19T21:51:53.496Z,45.87
2019-03-19T21:57:10.748Z,41.03
2019-03-19T21:59:58.521Z,44.43
2019-03-19T22:02:27.034Z,48.90
2019-03-19T22:04:55.480Z,42.53
2019-03-19T22:07:25.027Z,44.53
2019-03-19T22:09:53.483Z,41.57
2019-03-19T22:12:21.915Z,41.30
2019-03-19T22:14:50.332Z,39.73
2019-03-19T22:17:20.195Z,48.80
2019-03-19T22:19:48.791Z,41.30
2019-03-19T22:22:36.552Z,39.73
2019-03-19T22:25:17.626Z,37.97
2019-03-19T22:27:46.053Z,36.43
2019-03-19T22:30:21.727Z,49.57
2019-03-19T22:32:50.154Z,41.93
2019-03-19T22:35:18.662Z,43.77
2019-03-19T22:37:47.180Z,45.30
2019-03-19T22:40:17.736Z,39.90
2019-03-19T22:42:46.226Z,39.77
2019-03-19T22:45:23.442Z,41.93
2019-03-19T22:47:51.892Z,38.77
2019-03-19T22:50:20.339Z,43.57
2019-03-19T22:53:08.115Z,39.50
2019-03-19T22:55:36.536Z,39.07
2019-03-19T22:58:05.060Z,43.13
2019-03-19T23:00:54.060Z,45.43
2019-03-19T23:03:22.577Z,37.40
2019-03-19T23:05:51.095Z,38.80
2019-03-19T23:08:19.542Z,43.83
2019-03-19T23:10:47.986Z,41.63
2019-03-19T23:13:16.493Z,45.20
2019-03-19T23:15:44.914Z,38.93
2019-03-19T23:18:13.344Z,34.83
2019-03-19T23:20:41.782Z,35.17
2019-03-19T23:23:10.224Z,35.27
2019-03-19T23:25:38.762Z,40.13
2019-03-19T23:28:07.231Z,39.60
2019-03-19T23:30:35.729Z,42.00
2019-03-19T23:33:04.349Z,40.13
2019-03-19T23:35:32.755Z,33.80
2019-03-19T23:38:01.244Z,41.80
2019-03-19T23:40:29.690Z,38.83
2019-03-19T23:42:58.138Z,38.83
2019-03-19T23:45:26.554Z,36.33
2019-03-19T23:47:54.966Z,35.87
2019-03-19T23:50:23.409Z,36.90
2019-03-19T23:52:51.900Z,32.43
2019-03-19T23:55:20.405Z,36.63
2019-03-19T23:57:48.847Z,37.67
